sensor_id;sensor_type;location;lat;lon;timestamp;P1;durP1;ratioP1;P2;durP2;ratioP2
15929;SDS011;8064;51.142;4.780;2023-07-31T00:00:56;9.40;;;3.60;;
15929;SDS011;8064;51.142;4.780;2023-07-31T00:03:21;9.67;;;4.07;;
15929;SDS011;8064;51.142;4.780;2023-07-31T00:05:47;12.33;;;3.77;;
15929;SDS011;8064;51.142;4.780;2023-07-31T00:08:13;13.40;;;4.20;;
15929;SDS011;8064;51.142;4.780;2023-07-31T00:10:39;8.67;;;3.70;;
15929;SDS011;8064;51.142;4.780;2023-07-31T00:13:04;11.07;;;3.80;;
15929;SDS011;8064;51.142;4.780;2023-07-31T00:15:30;8.33;;;3.63;;
15929;SDS011;8064;51.142;4.780;2023-07-31T00:17:56;10.80;;;3.93;;
15929;SDS011;8064;51.142;4.780;2023-07-31T00:20:21;11.67;;;3.83;;
15929;SDS011;8064;51.142;4.780;2023-07-31T00:22:48;11.63;;;4.33;;
15929;SDS011;8064;51.142;4.780;2023-07-31T00:25:13;10.53;;;4.10;;
15929;SDS011;8064;51.142;4.780;2023-07-31T00:27:39;9.67;;;4.30;;
15929;SDS011;8064;51.142;4.780;2023-07-31T00:30:09;8.27;;;4.03;;
15929;SDS011;8064;51.142;4.780;2023-07-31T00:32:35;9.87;;;4.23;;
15929;SDS011;8064;51.142;4.780;2023-07-31T00:35:01;11.27;;;4.20;;
15929;SDS011;8064;51.142;4.780;2023-07-31T00:37:27;9.90;;;4.00;;
15929;SDS011;8064;51.142;4.780;2023-07-31T00:39:53;10.20;;;4.10;;
15929;SDS011;8064;51.142;4.780;2023-07-31T00:42:19;9.93;;;3.93;;
15929;SDS011;8064;51.142;4.780;2023-07-31T00:44:45;7.10;;;3.93;;
15929;SDS011;8064;51.142;4.780;2023-07-31T00:47:10;11.07;;;4.27;;
15929;SDS011;8064;51.142;4.780;2023-07-31T00:49:36;11.70;;;3.97;;
15929;SDS011;8064;51.142;4.780;2023-07-31T00:52:02;10.80;;;4.50;;
15929;SDS011;8064;51.142;4.780;2023-07-31T00:54:28;10.23;;;4.43;;
15929;SDS011;8064;51.142;4.780;2023-07-31T00:56:54;10.40;;;4.17;;
15929;SDS011;8064;51.142;4.780;2023-07-31T00:59:20;12.67;;;4.50;;
15929;SDS011;8064;51.142;4.780;2023-07-31T01:01:46;14.03;;;4.33;;
15929;SDS011;8064;51.142;4.780;2023-07-31T01:04:12;10.50;;;4.90;;
15929;SDS011;8064;51.142;4.780;2023-07-31T01:06:42;10.47;;;4.50;;
15929;SDS011;8064;51.142;4.780;2023-07-31T01:09:20;8.17;;;4.53;;
15929;SDS011;8064;51.142;4.780;2023-07-31T01:11:48;9.50;;;4.07;;
15929;SDS011;8064;51.142;4.780;2023-07-31T01:14:18;7.57;;;4.00;;
15929;SDS011;8064;51.142;4.780;2023-07-31T01:16:44;11.53;;;4.17;;
15929;SDS011;8064;51.142;4.780;2023-07-31T01:19:10;10.17;;;4.87;;
15929;SDS011;8064;51.142;4.780;2023-07-31T01:21:41;12.57;;;4.77;;
15929;SDS011;8064;51.142;4.780;2023-07-31T01:27:35;8.43;;;4.53;;
15929;SDS011;8064;51.142;4.780;2023-07-31T01:30:19;7.90;;;4.27;;
15929;SDS011;8064;51.142;4.780;2023-07-31T01:32:49;9.90;;;4.40;;
15929;SDS011;8064;51.142;4.780;2023-07-31T01:35:16;11.57;;;4.60;;
15929;SDS011;8064;51.142;4.780;2023-07-31T01:37:42;12.77;;;4.77;;
15929;SDS011;8064;51.142;4.780;2023-07-31T01:40:08;7.70;;;4.50;;
15929;SDS011;8064;51.142;4.780;2023-07-31T01:42:34;9.23;;;4.57;;
15929;SDS011;8064;51.142;4.780;2023-07-31T01:45:00;12.53;;;4.30;;
15929;SDS011;8064;51.142;4.780;2023-07-31T01:47:26;11.27;;;4.60;;
15929;SDS011;8064;51.142;4.780;2023-07-31T01:49:51;12.83;;;4.37;;
15929;SDS011;8064;51.142;4.780;2023-07-31T01:52:17;11.93;;;4.67;;
15929;SDS011;8064;51.142;4.780;2023-07-31T01:54:43;8.80;;;3.70;;
15929;SDS011;8064;51.142;4.780;2023-07-31T01:57:09;15.60;;;4.53;;
15929;SDS011;8064;51.142;4.780;2023-07-31T01:59:34;8.17;;;3.67;;
15929;SDS011;8064;51.142;4.780;2023-07-31T02:02:00;14.77;;;4.60;;
15929;SDS011;8064;51.142;4.780;2023-07-31T02:04:26;9.03;;;4.00;;
15929;SDS011;8064;51.142;4.780;2023-07-31T02:06:52;10.57;;;4.27;;
15929;SDS011;8064;51.142;4.780;2023-07-31T02:09:18;10.07;;;4.50;;
15929;SDS011;8064;51.142;4.780;2023-07-31T02:11:44;15.00;;;4.47;;
15929;SDS011;8064;51.142;4.780;2023-07-31T02:14:10;12.03;;;4.37;;
15929;SDS011;8064;51.142;4.780;2023-07-31T02:16:36;10.47;;;4.33;;
15929;SDS011;8064;51.142;4.780;2023-07-31T02:19:01;8.90;;;3.77;;
15929;SDS011;8064;51.142;4.780;2023-07-31T02:21:27;10.10;;;3.60;;
15929;SDS011;8064;51.142;4.780;2023-07-31T02:23:53;12.03;;;4.20;;
15929;SDS011;8064;51.142;4.780;2023-07-31T02:26:19;10.27;;;4.57;;
15929;SDS011;8064;51.142;4.780;2023-07-31T02:28:45;8.83;;;3.97;;
15929;SDS011;8064;51.142;4.780;2023-07-31T02:31:10;9.80;;;4.03;;
15929;SDS011;8064;51.142;4.780;2023-07-31T02:33:36;14.17;;;4.80;;
15929;SDS011;8064;51.142;4.780;2023-07-31T02:36:02;13.03;;;4.43;;
15929;SDS011;8064;51.142;4.780;2023-07-31T02:38:28;10.97;;;3.70;;
15929;SDS011;8064;51.142;4.780;2023-07-31T02:40:53;12.70;;;4.47;;
15929;SDS011;8064;51.142;4.780;2023-07-31T02:43:19;9.80;;;4.37;;
15929;SDS011;8064;51.142;4.780;2023-07-31T02:45:45;10.83;;;4.30;;
15929;SDS011;8064;51.142;4.780;2023-07-31T02:48:11;11.80;;;4.40;;
15929;SDS011;8064;51.142;4.780;2023-07-31T02:50:36;11.90;;;4.53;;
15929;SDS011;8064;51.142;4.780;2023-07-31T02:53:02;10.30;;;4.10;;
15929;SDS011;8064;51.142;4.780;2023-07-31T02:55:28;8.53;;;4.10;;
15929;SDS011;8064;51.142;4.780;2023-07-31T02:57:54;14.50;;;4.53;;
15929;SDS011;8064;51.142;4.780;2023-07-31T03:00:19;10.27;;;4.57;;
15929;SDS011;8064;51.142;4.780;2023-07-31T03:02:45;10.07;;;4.00;;
15929;SDS011;8064;51.142;4.780;2023-07-31T03:05:11;9.83;;;3.83;;
15929;SDS011;8064;51.142;4.780;2023-07-31T03:07:37;12.40;;;4.73;;
15929;SDS011;8064;51.142;4.780;2023-07-31T03:10:02;9.70;;;4.30;;
15929;SDS011;8064;51.142;4.780;2023-07-31T03:12:28;11.90;;;4.10;;
15929;SDS011;8064;51.142;4.780;2023-07-31T03:14:54;7.73;;;3.60;;
15929;SDS011;8064;51.142;4.780;2023-07-31T03:17:20;10.87;;;4.17;;
15929;SDS011;8064;51.142;4.780;2023-07-31T03:19:46;11.67;;;4.17;;
15929;SDS011;8064;51.142;4.780;2023-07-31T03:22:11;10.53;;;4.30;;
15929;SDS011;8064;51.142;4.780;2023-07-31T03:24:37;7.13;;;4.07;;
15929;SDS011;8064;51.142;4.780;2023-07-31T03:27:03;10.07;;;4.67;;
15929;SDS011;8064;51.142;4.780;2023-07-31T03:29:29;12.30;;;4.57;;
15929;SDS011;8064;51.142;4.780;2023-07-31T03:31:55;7.73;;;4.07;;
15929;SDS011;8064;51.142;4.780;2023-07-31T03:34:21;16.23;;;4.47;;
15929;SDS011;8064;51.142;4.780;2023-07-31T03:36:46;9.77;;;4.13;;
15929;SDS011;8064;51.142;4.780;2023-07-31T03:39:12;9.20;;;4.40;;
15929;SDS011;8064;51.142;4.780;2023-07-31T03:41:38;9.53;;;4.97;;
15929;SDS011;8064;51.142;4.780;2023-07-31T03:44:04;10.77;;;4.40;;
15929;SDS011;8064;51.142;4.780;2023-07-31T03:46:29;9.17;;;4.13;;
15929;SDS011;8064;51.142;4.780;2023-07-31T03:48:55;9.97;;;4.50;;
15929;SDS011;8064;51.142;4.780;2023-07-31T03:51:21;7.73;;;4.10;;
15929;SDS011;8064;51.142;4.780;2023-07-31T03:53:47;8.93;;;4.00;;
15929;SDS011;8064;51.142;4.780;2023-07-31T03:56:13;10.80;;;4.33;;
15929;SDS011;8064;51.142;4.780;2023-07-31T03:58:39;7.73;;;4.00;;
15929;SDS011;8064;51.142;4.780;2023-07-31T04:01:04;8.70;;;3.83;;
15929;SDS011;8064;51.142;4.780;2023-07-31T04:03:30;5.50;;;3.83;;
15929;SDS011;8064;51.142;4.780;2023-07-31T04:05:56;8.93;;;3.77;;
15929;SDS011;8064;51.142;4.780;2023-07-31T04:08:22;7.20;;;4.13;;
15929;SDS011;8064;51.142;4.780;2023-07-31T04:10:48;9.17;;;3.50;;
15929;SDS011;8064;51.142;4.780;2023-07-31T04:13:14;7.83;;;3.43;;
15929;SDS011;8064;51.142;4.780;2023-07-31T04:15:40;8.53;;;3.73;;
15929;SDS011;8064;51.142;4.780;2023-07-31T04:18:06;4.70;;;3.37;;
15929;SDS011;8064;51.142;4.780;2023-07-31T04:20:32;8.13;;;3.40;;
15929;SDS011;8064;51.142;4.780;2023-07-31T04:22:58;7.70;;;3.70;;
15929;SDS011;8064;51.142;4.780;2023-07-31T04:25:23;5.57;;;3.27;;
15929;SDS011;8064;51.142;4.780;2023-07-31T04:27:49;7.23;;;4.07;;
15929;SDS011;8064;51.142;4.780;2023-07-31T04:30:15;6.20;;;3.53;;
15929;SDS011;8064;51.142;4.780;2023-07-31T04:32:41;7.63;;;3.87;;
15929;SDS011;8064;51.142;4.780;2023-07-31T04:35:07;8.47;;;3.50;;
15929;SDS011;8064;51.142;4.780;2023-07-31T04:37:33;6.63;;;3.77;;
15929;SDS011;8064;51.142;4.780;2023-07-31T04:39:58;5.97;;;3.83;;
15929;SDS011;8064;51.142;4.780;2023-07-31T04:42:24;6.60;;;3.70;;
15929;SDS011;8064;51.142;4.780;2023-07-31T04:44:52;6.00;;;2.83;;
15929;SDS011;8064;51.142;4.780;2023-07-31T04:47:18;6.10;;;3.40;;
15929;SDS011;8064;51.142;4.780;2023-07-31T04:49:44;5.63;;;3.53;;
15929;SDS011;8064;51.142;4.780;2023-07-31T04:52:10;4.90;;;3.20;;
15929;SDS011;8064;51.142;4.780;2023-07-31T04:54:35;5.83;;;3.30;;
15929;SDS011;8064;51.142;4.780;2023-07-31T04:57:01;3.97;;;2.90;;
15929;SDS011;8064;51.142;4.780;2023-07-31T04:59:27;4.70;;;3.40;;
15929;SDS011;8064;51.142;4.780;2023-07-31T05:01:53;6.00;;;3.30;;
15929;SDS011;8064;51.142;4.780;2023-07-31T05:04:19;5.80;;;3.93;;
15929;SDS011;8064;51.142;4.780;2023-07-31T05:06:44;5.83;;;3.80;;
15929;SDS011;8064;51.142;4.780;2023-07-31T05:09:10;9.60;;;4.07;;
15929;SDS011;8064;51.142;4.780;2023-07-31T05:11:36;6.63;;;3.50;;
15929;SDS011;8064;51.142;4.780;2023-07-31T05:14:02;6.87;;;3.73;;
15929;SDS011;8064;51.142;4.780;2023-07-31T05:16:28;5.33;;;3.63;;
15929;SDS011;8064;51.142;4.780;2023-07-31T05:18:54;5.67;;;3.80;;
15929;SDS011;8064;51.142;4.780;2023-07-31T05:21:20;5.17;;;3.63;;
15929;SDS011;8064;51.142;4.780;2023-07-31T05:23:45;7.13;;;3.90;;
15929;SDS011;8064;51.142;4.780;2023-07-31T05:26:12;5.87;;;3.80;;
15929;SDS011;8064;51.142;4.780;2023-07-31T05:28:38;5.70;;;3.70;;
15929;SDS011;8064;51.142;4.780;2023-07-31T05:31:04;8.63;;;3.97;;
15929;SDS011;8064;51.142;4.780;2023-07-31T05:33:31;5.33;;;3.93;;
15929;SDS011;8064;51.142;4.780;2023-07-31T05:35:57;7.03;;;3.60;;
15929;SDS011;8064;51.142;4.780;2023-07-31T05:38:23;5.47;;;4.00;;
15929;SDS011;8064;51.142;4.780;2023-07-31T05:40:49;4.37;;;3.63;;
15929;SDS011;8064;51.142;4.780;2023-07-31T05:43:15;6.33;;;3.53;;
15929;SDS011;8064;51.142;4.780;2023-07-31T05:45:42;6.83;;;4.07;;
15929;SDS011;8064;51.142;4.780;2023-07-31T05:48:08;7.77;;;4.20;;
15929;SDS011;8064;51.142;4.780;2023-07-31T05:50:33;5.57;;;4.20;;
15929;SDS011;8064;51.142;4.780;2023-07-31T05:52:59;7.67;;;4.10;;
15929;SDS011;8064;51.142;4.780;2023-07-31T05:55:25;5.93;;;3.83;;
15929;SDS011;8064;51.142;4.780;2023-07-31T05:57:52;7.87;;;3.77;;
15929;SDS011;8064;51.142;4.780;2023-07-31T06:00:18;4.83;;;3.40;;
15929;SDS011;8064;51.142;4.780;2023-07-31T06:02:44;5.40;;;4.27;;
15929;SDS011;8064;51.142;4.780;2023-07-31T06:05:10;5.93;;;3.70;;
15929;SDS011;8064;51.142;4.780;2023-07-31T06:07:35;8.37;;;3.90;;
15929;SDS011;8064;51.142;4.780;2023-07-31T06:10:01;6.93;;;3.83;;
15929;SDS011;8064;51.142;4.780;2023-07-31T06:12:30;6.07;;;3.57;;
15929;SDS011;8064;51.142;4.780;2023-07-31T06:14:56;4.77;;;3.43;;
15929;SDS011;8064;51.142;4.780;2023-07-31T06:17:22;5.13;;;3.50;;
15929;SDS011;8064;51.142;4.780;2023-07-31T06:19:49;4.93;;;3.00;;
15929;SDS011;8064;51.142;4.780;2023-07-31T06:22:15;6.67;;;3.70;;
15929;SDS011;8064;51.142;4.780;2023-07-31T06:24:41;6.20;;;3.53;;
15929;SDS011;8064;51.142;4.780;2023-07-31T06:27:06;6.50;;;4.00;;
15929;SDS011;8064;51.142;4.780;2023-07-31T06:29:32;7.60;;;3.90;;
15929;SDS011;8064;51.142;4.780;2023-07-31T06:31:58;7.13;;;3.70;;
15929;SDS011;8064;51.142;4.780;2023-07-31T06:34:24;5.97;;;3.60;;
15929;SDS011;8064;51.142;4.780;2023-07-31T06:36:50;6.00;;;3.57;;
15929;SDS011;8064;51.142;4.780;2023-07-31T06:39:15;6.47;;;3.60;;
15929;SDS011;8064;51.142;4.780;2023-07-31T06:41:42;8.33;;;3.83;;
15929;SDS011;8064;51.142;4.780;2023-07-31T06:44:08;5.90;;;3.87;;
15929;SDS011;8064;51.142;4.780;2023-07-31T06:46:33;9.63;;;4.10;;
15929;SDS011;8064;51.142;4.780;2023-07-31T06:48:59;6.43;;;3.90;;
15929;SDS011;8064;51.142;4.780;2023-07-31T06:51:25;4.67;;;3.60;;
15929;SDS011;8064;51.142;4.780;2023-07-31T06:53:51;6.47;;;3.60;;
15929;SDS011;8064;51.142;4.780;2023-07-31T06:56:16;8.83;;;3.27;;
15929;SDS011;8064;51.142;4.780;2023-07-31T06:58:42;12.73;;;3.93;;
15929;SDS011;8064;51.142;4.780;2023-07-31T07:01:08;8.33;;;3.73;;
15929;SDS011;8064;51.142;4.780;2023-07-31T07:03:34;7.32;;;4.03;;
15929;SDS011;8064;51.142;4.780;2023-07-31T07:05:59;4.90;;;3.40;;
15929;SDS011;8064;51.142;4.780;2023-07-31T07:08:26;6.20;;;3.50;;
15929;SDS011;8064;51.142;4.780;2023-07-31T07:10:52;6.37;;;3.27;;
15929;SDS011;8064;51.142;4.780;2023-07-31T07:13:17;8.43;;;3.63;;
15929;SDS011;8064;51.142;4.780;2023-07-31T07:15:47;4.30;;;3.30;;
15929;SDS011;8064;51.142;4.780;2023-07-31T07:18:14;3.83;;;3.33;;
15929;SDS011;8064;51.142;4.780;2023-07-31T07:20:45;8.03;;;3.93;;
15929;SDS011;8064;51.142;4.780;2023-07-31T07:23:12;7.80;;;3.57;;
15929;SDS011;8064;51.142;4.780;2023-07-31T07:25:38;6.20;;;3.20;;
15929;SDS011;8064;51.142;4.780;2023-07-31T07:28:04;4.53;;;3.17;;
15929;SDS011;8064;51.142;4.780;2023-07-31T07:30:29;6.47;;;3.50;;
15929;SDS011;8064;51.142;4.780;2023-07-31T07:32:55;6.37;;;3.40;;
15929;SDS011;8064;51.142;4.780;2023-07-31T07:35:21;5.90;;;3.30;;
15929;SDS011;8064;51.142;4.780;2023-07-31T07:37:48;5.00;;;3.30;;
15929;SDS011;8064;51.142;4.780;2023-07-31T07:40:15;4.53;;;3.20;;
15929;SDS011;8064;51.142;4.780;2023-07-31T07:42:41;6.17;;;3.40;;
15929;SDS011;8064;51.142;4.780;2023-07-31T07:45:07;7.07;;;3.63;;
15929;SDS011;8064;51.142;4.780;2023-07-31T07:47:33;5.43;;;3.20;;
15929;SDS011;8064;51.142;4.780;2023-07-31T07:49:59;8.03;;;3.80;;
15929;SDS011;8064;51.142;4.780;2023-07-31T07:52:24;8.87;;;3.20;;
15929;SDS011;8064;51.142;4.780;2023-07-31T07:54:50;9.37;;;3.90;;
15929;SDS011;8064;51.142;4.780;2023-07-31T07:57:16;9.73;;;4.07;;
15929;SDS011;8064;51.142;4.780;2023-07-31T07:59:42;8.30;;;3.57;;
15929;SDS011;8064;51.142;4.780;2023-07-31T08:02:07;7.87;;;3.80;;
15929;SDS011;8064;51.142;4.780;2023-07-31T08:04:33;7.50;;;3.23;;
15929;SDS011;8064;51.142;4.780;2023-07-31T08:06:59;9.67;;;3.60;;
15929;SDS011;8064;51.142;4.780;2023-07-31T08:09:25;5.70;;;3.30;;
15929;SDS011;8064;51.142;4.780;2023-07-31T08:11:51;9.07;;;3.40;;
15929;SDS011;8064;51.142;4.780;2023-07-31T08:14:17;7.53;;;3.63;;
15929;SDS011;8064;51.142;4.780;2023-07-31T08:16:42;6.27;;;3.20;;
15929;SDS011;8064;51.142;4.780;2023-07-31T08:19:09;6.97;;;3.27;;
15929;SDS011;8064;51.142;4.780;2023-07-31T08:21:34;6.23;;;3.10;;
15929;SDS011;8064;51.142;4.780;2023-07-31T08:24:00;6.03;;;2.93;;
15929;SDS011;8064;51.142;4.780;2023-07-31T08:26:26;6.30;;;2.90;;
15929;SDS011;8064;51.142;4.780;2023-07-31T08:28:52;5.97;;;3.17;;
15929;SDS011;8064;51.142;4.780;2023-07-31T08:31:18;5.37;;;3.10;;
15929;SDS011;8064;51.142;4.780;2023-07-31T08:33:44;5.33;;;2.87;;
15929;SDS011;8064;51.142;4.780;2023-07-31T08:36:10;4.87;;;3.10;;
15929;SDS011;8064;51.142;4.780;2023-07-31T08:38:35;5.33;;;3.13;;
15929;SDS011;8064;51.142;4.780;2023-07-31T08:41:03;4.53;;;2.90;;
15929;SDS011;8064;51.142;4.780;2023-07-31T08:43:30;6.27;;;2.70;;
15929;SDS011;8064;51.142;4.780;2023-07-31T08:45:57;6.18;;;2.92;;
15929;SDS011;8064;51.142;4.780;2023-07-31T08:48:24;6.28;;;2.90;;
15929;SDS011;8064;51.142;4.780;2023-07-31T08:50:52;5.23;;;2.50;;
15929;SDS011;8064;51.142;4.780;2023-07-31T08:53:18;5.90;;;2.37;;
15929;SDS011;8064;51.142;4.780;2023-07-31T08:55:44;5.53;;;3.10;;
15929;SDS011;8064;51.142;4.780;2023-07-31T08:58:10;5.80;;;2.50;;
15929;SDS011;8064;51.142;4.780;2023-07-31T09:00:39;3.27;;;2.30;;
15929;SDS011;8064;51.142;4.780;2023-07-31T09:03:08;5.03;;;2.75;;
15929;SDS011;8064;51.142;4.780;2023-07-31T09:05:37;5.53;;;2.55;;
15929;SDS011;8064;51.142;4.780;2023-07-31T09:08:06;2.70;;;2.10;;
15929;SDS011;8064;51.142;4.780;2023-07-31T09:10:34;5.30;;;2.43;;
15929;SDS011;8064;51.142;4.780;2023-07-31T09:13:00;4.67;;;2.60;;
15929;SDS011;8064;51.142;4.780;2023-07-31T09:15:27;4.68;;;2.55;;
15929;SDS011;8064;51.142;4.780;2023-07-31T09:17:59;6.00;;;2.35;;
15929;SDS011;8064;51.142;4.780;2023-07-31T09:20:26;3.90;;;1.90;;
15929;SDS011;8064;51.142;4.780;2023-07-31T09:22:52;6.37;;;2.40;;
15929;SDS011;8064;51.142;4.780;2023-07-31T09:28:01;4.97;;;2.40;;
15929;SDS011;8064;51.142;4.780;2023-07-31T09:30:27;4.78;;;2.30;;
15929;SDS011;8064;51.142;4.780;2023-07-31T09:35:36;4.97;;;2.60;;
15929;SDS011;8064;51.142;4.780;2023-07-31T09:38:06;5.85;;;3.08;;
15929;SDS011;8064;51.142;4.780;2023-07-31T09:40:35;5.13;;;2.60;;
15929;SDS011;8064;51.142;4.780;2023-07-31T09:43:04;4.28;;;2.65;;
15929;SDS011;8064;51.142;4.780;2023-07-31T09:45:33;4.60;;;3.10;;
15929;SDS011;8064;51.142;4.780;2023-07-31T09:48:02;5.97;;;2.42;;
15929;SDS011;8064;51.142;4.780;2023-07-31T09:50:28;4.72;;;2.40;;
15929;SDS011;8064;51.142;4.780;2023-07-31T09:52:55;5.50;;;2.78;;
15929;SDS011;8064;51.142;4.780;2023-07-31T09:55:20;6.07;;;2.60;;
15929;SDS011;8064;51.142;4.780;2023-07-31T09:57:47;5.15;;;2.55;;
15929;SDS011;8064;51.142;4.780;2023-07-31T10:00:15;9.63;;;3.60;;
15929;SDS011;8064;51.142;4.780;2023-07-31T10:02:45;5.90;;;3.15;;
15929;SDS011;8064;51.142;4.780;2023-07-31T10:05:13;4.20;;;3.17;;
15929;SDS011;8064;51.142;4.780;2023-07-31T10:07:42;6.85;;;2.80;;
15929;SDS011;8064;51.142;4.780;2023-07-31T10:10:12;4.50;;;2.67;;
15929;SDS011;8064;51.142;4.780;2023-07-31T10:12:39;5.93;;;2.85;;
15929;SDS011;8064;51.142;4.780;2023-07-31T10:15:05;5.47;;;3.03;;
15929;SDS011;8064;51.142;4.780;2023-07-31T10:17:33;4.72;;;2.80;;
15929;SDS011;8064;51.142;4.780;2023-07-31T10:20:01;6.00;;;2.75;;
15929;SDS011;8064;51.142;4.780;2023-07-31T10:22:30;4.78;;;2.38;;
15929;SDS011;8064;51.142;4.780;2023-07-31T10:24:57;5.53;;;2.40;;
15929;SDS011;8064;51.142;4.780;2023-07-31T10:27:24;3.58;;;2.42;;
15929;SDS011;8064;51.142;4.780;2023-07-31T10:29:49;4.32;;;2.80;;
15929;SDS011;8064;51.142;4.780;2023-07-31T10:32:17;3.03;;;2.10;;
15929;SDS011;8064;51.142;4.780;2023-07-31T10:34:43;2.58;;;1.85;;
15929;SDS011;8064;51.142;4.780;2023-07-31T10:37:20;3.75;;;2.45;;
15929;SDS011;8064;51.142;4.780;2023-07-31T10:40:00;3.50;;;2.10;;
15929;SDS011;8064;51.142;4.780;2023-07-31T10:42:30;3.35;;;2.25;;
15929;SDS011;8064;51.142;4.780;2023-07-31T10:44:58;5.97;;;2.60;;
15929;SDS011;8064;51.142;4.780;2023-07-31T10:47:25;2.80;;;2.50;;
15929;SDS011;8064;51.142;4.780;2023-07-31T10:49:51;3.60;;;2.78;;
15929;SDS011;8064;51.142;4.780;2023-07-31T10:52:26;5.13;;;2.60;;
15929;SDS011;8064;51.142;4.780;2023-07-31T10:58:08;4.97;;;2.50;;
15929;SDS011;8064;51.142;4.780;2023-07-31T11:00:36;5.10;;;2.65;;
15929;SDS011;8064;51.142;4.780;2023-07-31T11:03:05;4.80;;;2.90;;
15929;SDS011;8064;51.142;4.780;2023-07-31T11:08:26;4.18;;;2.50;;
15929;SDS011;8064;51.142;4.780;2023-07-31T11:13:29;4.75;;;3.10;;
15929;SDS011;8064;51.142;4.780;2023-07-31T11:15:55;6.10;;;2.67;;
15929;SDS011;8064;51.142;4.780;2023-07-31T11:18:21;5.03;;;3.30;;
15929;SDS011;8064;51.142;4.780;2023-07-31T11:20:47;4.32;;;3.17;;
15929;SDS011;8064;51.142;4.780;2023-07-31T11:23:15;6.93;;;3.42;;
15929;SDS011;8064;51.142;4.780;2023-07-31T11:25:42;6.55;;;3.33;;
15929;SDS011;8064;51.142;4.780;2023-07-31T11:28:09;4.63;;;3.22;;
15929;SDS011;8064;51.142;4.780;2023-07-31T11:30:36;5.63;;;3.60;;
15929;SDS011;8064;51.142;4.780;2023-07-31T11:33:04;5.47;;;3.10;;
15929;SDS011;8064;51.142;4.780;2023-07-31T11:35:32;8.43;;;3.80;;
15929;SDS011;8064;51.142;4.780;2023-07-31T11:37:59;4.82;;;3.20;;
15929;SDS011;8064;51.142;4.780;2023-07-31T11:40:25;4.57;;;3.47;;
15929;SDS011;8064;51.142;4.780;2023-07-31T11:45:42;5.88;;;3.47;;
15929;SDS011;8064;51.142;4.780;2023-07-31T11:48:18;10.32;;;4.30;;
15929;SDS011;8064;51.142;4.780;2023-07-31T11:50:46;6.70;;;3.45;;
15929;SDS011;8064;51.142;4.780;2023-07-31T11:53:14;4.97;;;3.33;;
15929;SDS011;8064;51.142;4.780;2023-07-31T11:55:42;6.30;;;3.58;;
15929;SDS011;8064;51.142;4.780;2023-07-31T11:58:08;5.53;;;3.47;;
15929;SDS011;8064;51.142;4.780;2023-07-31T12:00:35;7.35;;;3.55;;
15929;SDS011;8064;51.142;4.780;2023-07-31T12:03:01;7.30;;;3.67;;
15929;SDS011;8064;51.142;4.780;2023-07-31T12:05:27;7.15;;;3.70;;
15929;SDS011;8064;51.142;4.780;2023-07-31T12:07:53;7.30;;;3.85;;
15929;SDS011;8064;51.142;4.780;2023-07-31T12:15:53;5.63;;;3.53;;
15929;SDS011;8064;51.142;4.780;2023-07-31T12:18:21;7.82;;;3.67;;
15929;SDS011;8064;51.142;4.780;2023-07-31T12:20:48;4.70;;;3.35;;
15929;SDS011;8064;51.142;4.780;2023-07-31T12:23:19;9.43;;;3.38;;
15929;SDS011;8064;51.142;4.780;2023-07-31T12:28:48;9.25;;;3.70;;
15929;SDS011;8064;51.142;4.780;2023-07-31T12:31:16;7.20;;;4.00;;
15929;SDS011;8064;51.142;4.780;2023-07-31T12:33:43;6.60;;;4.07;;
15929;SDS011;8064;51.142;4.780;2023-07-31T12:36:11;7.47;;;3.80;;
15929;SDS011;8064;51.142;4.780;2023-07-31T12:38:38;7.55;;;3.58;;
15929;SDS011;8064;51.142;4.780;2023-07-31T12:41:04;6.40;;;3.55;;
15929;SDS011;8064;51.142;4.780;2023-07-31T12:43:32;6.13;;;3.67;;
15929;SDS011;8064;51.142;4.780;2023-07-31T12:45:58;5.82;;;3.80;;
15929;SDS011;8064;51.142;4.780;2023-07-31T12:48:25;6.20;;;3.35;;
15929;SDS011;8064;51.142;4.780;2023-07-31T12:50:50;8.10;;;3.92;;
15929;SDS011;8064;51.142;4.780;2023-07-31T12:53:16;5.85;;;3.25;;
15929;SDS011;8064;51.142;4.780;2023-07-31T12:55:42;6.25;;;3.58;;
15929;SDS011;8064;51.142;4.780;2023-07-31T12:58:09;12.43;;;4.03;;
15929;SDS011;8064;51.142;4.780;2023-07-31T13:00:35;9.20;;;3.90;;
15929;SDS011;8064;51.142;4.780;2023-07-31T13:03:02;8.10;;;3.78;;
15929;SDS011;8064;51.142;4.780;2023-07-31T13:05:29;6.03;;;3.63;;
15929;SDS011;8064;51.142;4.780;2023-07-31T13:07:55;8.45;;;4.13;;
15929;SDS011;8064;51.142;4.780;2023-07-31T13:10:22;11.05;;;3.80;;
15929;SDS011;8064;51.142;4.780;2023-07-31T13:12:48;8.10;;;3.92;;
15929;SDS011;8064;51.142;4.780;2023-07-31T13:15:14;6.95;;;4.03;;
15929;SDS011;8064;51.142;4.780;2023-07-31T13:17:40;6.70;;;4.07;;
15929;SDS011;8064;51.142;4.780;2023-07-31T13:20:06;7.38;;;3.67;;
15929;SDS011;8064;51.142;4.780;2023-07-31T13:22:32;8.95;;;3.55;;
15929;SDS011;8064;51.142;4.780;2023-07-31T13:24:58;5.72;;;3.40;;
15929;SDS011;8064;51.142;4.780;2023-07-31T13:27:24;7.10;;;3.35;;
15929;SDS011;8064;51.142;4.780;2023-07-31T13:29:50;6.03;;;3.67;;
15929;SDS011;8064;51.142;4.780;2023-07-31T13:32:17;5.30;;;3.40;;
15929;SDS011;8064;51.142;4.780;2023-07-31T13:34:44;5.57;;;3.60;;
15929;SDS011;8064;51.142;4.780;2023-07-31T13:37:11;8.57;;;3.90;;
15929;SDS011;8064;51.142;4.780;2023-07-31T13:39:36;5.93;;;3.55;;
15929;SDS011;8064;51.142;4.780;2023-07-31T13:42:03;5.88;;;4.00;;
15929;SDS011;8064;51.142;4.780;2023-07-31T13:44:32;5.28;;;3.80;;
15929;SDS011;8064;51.142;4.780;2023-07-31T13:46:59;9.15;;;3.85;;
15929;SDS011;8064;51.142;4.780;2023-07-31T13:49:25;7.75;;;3.80;;
15929;SDS011;8064;51.142;4.780;2023-07-31T13:51:51;8.05;;;3.70;;
15929;SDS011;8064;51.142;4.780;2023-07-31T13:54:17;6.60;;;3.70;;
15929;SDS011;8064;51.142;4.780;2023-07-31T13:56:43;6.20;;;3.28;;
15929;SDS011;8064;51.142;4.780;2023-07-31T13:59:10;6.93;;;3.08;;
15929;SDS011;8064;51.142;4.780;2023-07-31T14:01:36;5.20;;;2.78;;
15929;SDS011;8064;51.142;4.780;2023-07-31T14:04:02;6.70;;;2.60;;
15929;SDS011;8064;51.142;4.780;2023-07-31T14:06:28;5.97;;;2.85;;
15929;SDS011;8064;51.142;4.780;2023-07-31T14:08:54;3.08;;;1.90;;
15929;SDS011;8064;51.142;4.780;2023-07-31T14:11:20;3.85;;;1.75;;
15929;SDS011;8064;51.142;4.780;2023-07-31T14:13:47;3.30;;;1.60;;
15929;SDS011;8064;51.142;4.780;2023-07-31T14:16:14;3.47;;;1.70;;
15929;SDS011;8064;51.142;4.780;2023-07-31T14:18:41;6.25;;;2.00;;
15929;SDS011;8064;51.142;4.780;2023-07-31T14:21:06;2.78;;;1.88;;
15929;SDS011;8064;51.142;4.780;2023-07-31T14:23:33;3.88;;;2.10;;
15929;SDS011;8064;51.142;4.780;2023-07-31T14:25:59;2.45;;;1.77;;
15929;SDS011;8064;51.142;4.780;2023-07-31T14:28:25;2.95;;;1.70;;
15929;SDS011;8064;51.142;4.780;2023-07-31T14:30:51;4.97;;;2.28;;
15929;SDS011;8064;51.142;4.780;2023-07-31T14:33:17;2.83;;;1.80;;
15929;SDS011;8064;51.142;4.780;2023-07-31T14:35:42;3.80;;;2.30;;
15929;SDS011;8064;51.142;4.780;2023-07-31T14:38:08;2.65;;;2.10;;
15929;SDS011;8064;51.142;4.780;2023-07-31T14:40:34;2.97;;;2.03;;
15929;SDS011;8064;51.142;4.780;2023-07-31T14:43:00;5.30;;;1.90;;
15929;SDS011;8064;51.142;4.780;2023-07-31T14:45:25;3.03;;;1.98;;
15929;SDS011;8064;51.142;4.780;2023-07-31T14:47:51;2.22;;;1.80;;
15929;SDS011;8064;51.142;4.780;2023-07-31T14:50:17;2.85;;;1.92;;
15929;SDS011;8064;51.142;4.780;2023-07-31T14:52:44;3.13;;;2.35;;
15929;SDS011;8064;51.142;4.780;2023-07-31T14:55:10;2.72;;;1.88;;
15929;SDS011;8064;51.142;4.780;2023-07-31T14:57:36;4.80;;;1.92;;
15929;SDS011;8064;51.142;4.780;2023-07-31T15:00:02;2.55;;;1.85;;
15929;SDS011;8064;51.142;4.780;2023-07-31T15:02:33;3.35;;;2.20;;
15929;SDS011;8064;51.142;4.780;2023-07-31T15:05:00;5.20;;;2.25;;
15929;SDS011;8064;51.142;4.780;2023-07-31T15:07:25;3.85;;;2.10;;
15929;SDS011;8064;51.142;4.780;2023-07-31T15:09:51;2.75;;;2.20;;
15929;SDS011;8064;51.142;4.780;2023-07-31T15:12:17;5.50;;;2.33;;
15929;SDS011;8064;51.142;4.780;2023-07-31T15:14:43;2.47;;;1.90;;
15929;SDS011;8064;51.142;4.780;2023-07-31T15:17:09;3.45;;;2.10;;
15929;SDS011;8064;51.142;4.780;2023-07-31T15:19:34;3.00;;;2.20;;
15929;SDS011;8064;51.142;4.780;2023-07-31T15:22:02;2.75;;;1.80;;
15929;SDS011;8064;51.142;4.780;2023-07-31T15:24:28;2.47;;;1.92;;